sensor_id;sensor_type;location;lat;lon;timestamp;temperature;humidity
45906;DHT22;31619;49.008;12.106;2023-02-12T00:01:10;4.30;99.90
45906;DHT22;31619;49.008;12.106;2023-02-12T00:03:37;4.30;99.90
45906;DHT22;31619;49.008;12.106;2023-02-12T00:06:04;4.30;99.90
45906;DHT22;31619;49.008;12.106;2023-02-12T00:08:29;4.30;99.90
45906;DHT22;31619;49.008;12.106;2023-02-12T00:10:55;4.30;99.90
45906;DHT22;31619;49.008;12.106;2023-02-12T00:13:21;4.40;99.90
45906;DHT22;31619;49.008;12.106;2023-02-12T00:15:46;4.50;99.90
45906;DHT22;31619;49.008;12.106;2023-02-12T00:18:12;4.50;99.90
45906;DHT22;31619;49.008;12.106;2023-02-12T00:20:38;4.60;99.90
45906;DHT22;31619;49.008;12.106;2023-02-12T00:23:04;4.70;99.90
45906;DHT22;31619;49.008;12.106;2023-02-12T00:25:30;4.80;99.90
45906;DHT22;31619;49.008;12.106;2023-02-12T00:27:56;4.70;99.90
45906;DHT22;31619;49.008;12.106;2023-02-12T00:30:21;4.70;99.90
45906;DHT22;31619;49.008;12.106;2023-02-12T00:32:47;4.60;99.90
45906;DHT22;31619;49.008;12.106;2023-02-12T00:35:13;4.60;99.90
45906;DHT22;31619;49.008;12.106;2023-02-12T00:37:38;4.60;99.90
45906;DHT22;31619;49.008;12.106;2023-02-12T00:40:05;4.50;99.90
45906;DHT22;31619;49.008;12.106;2023-02-12T00:42:31;4.50;99.90
45906;DHT22;31619;49.008;12.106;2023-02-12T00:44:56;4.60;99.90
45906;DHT22;31619;49.008;12.106;2023-02-12T00:47:22;4.50;99.90
45906;DHT22;31619;49.008;12.106;2023-02-12T00:49:47;4.50;99.90
45906;DHT22;31619;49.008;12.106;2023-02-12T00:52:13;4.50;99.90
45906;DHT22;31619;49.008;12.106;2023-02-12T00:54:39;4.40;99.90
45906;DHT22;31619;49.008;12.106;2023-02-12T00:57:04;4.50;99.90
45906;DHT22;31619;49.008;12.106;2023-02-12T00:59:30;4.50;99.90
45906;DHT22;31619;49.008;12.106;2023-02-12T01:01:56;4.60;99.90
45906;DHT22;31619;49.008;12.106;2023-02-12T01:04:21;4.60;99.90
45906;DHT22;31619;49.008;12.106;2023-02-12T01:06:47;4.60;99.90
45906;DHT22;31619;49.008;12.106;2023-02-12T01:09:13;4.50;99.90
45906;DHT22;31619;49.008;12.106;2023-02-12T01:11:38;4.50;99.90
45906;DHT22;31619;49.008;12.106;2023-02-12T01:14:04;4.50;99.90
45906;DHT22;31619;49.008;12.106;2023-02-12T01:16:30;4.40;99.90
45906;DHT22;31619;49.008;12.106;2023-02-12T01:18:58;4.40;99.90
45906;DHT22;31619;49.008;12.106;2023-02-12T01:21:26;4.50;99.90
45906;DHT22;31619;49.008;12.106;2023-02-12T01:23:52;4.50;99.90
45906;DHT22;31619;49.008;12.106;2023-02-12T01:26:18;4.60;99.90
45906;DHT22;31619;49.008;12.106;2023-02-12T01:28:48;4.70;99.90
45906;DHT22;31619;49.008;12.106;2023-02-12T01:31:17;4.70;99.90
45906;DHT22;31619;49.008;12.106;2023-02-12T01:33:43;4.80;99.90
45906;DHT22;31619;49.008;12.106;2023-02-12T01:36:10;4.80;99.90
45906;DHT22;31619;49.008;12.106;2023-02-12T01:38:35;4.90;99.90
45906;DHT22;31619;49.008;12.106;2023-02-12T01:41:06;4.90;99.90
45906;DHT22;31619;49.008;12.106;2023-02-12T01:43:36;4.80;99.90
45906;DHT22;31619;49.008;12.106;2023-02-12T01:46:02;4.80;99.90
45906;DHT22;31619;49.008;12.106;2023-02-12T01:48:31;4.70;99.90
45906;DHT22;31619;49.008;12.106;2023-02-12T01:50:58;4.60;99.90
45906;DHT22;31619;49.008;12.106;2023-02-12T01:53:27;4.60;99.90
45906;DHT22;31619;49.008;12.106;2023-02-12T01:55:57;4.60;99.90
45906;DHT22;31619;49.008;12.106;2023-02-12T01:58:25;4.60;99.90
45906;DHT22;31619;49.008;12.106;2023-02-12T02:00:54;4.70;99.90
45906;DHT22;31619;49.008;12.106;2023-02-12T02:03:20;4.80;99.90
45906;DHT22;31619;49.008;12.106;2023-02-12T02:08:29;4.70;99.90
45906;DHT22;31619;49.008;12.106;2023-02-12T02:10:55;4.70;99.90
45906;DHT22;31619;49.008;12.106;2023-02-12T02:13:21;4.60;99.90
45906;DHT22;31619;49.008;12.106;2023-02-12T02:16:23;4.60;99.90
45906;DHT22;31619;49.008;12.106;2023-02-12T02:18:57;4.60;99.90
45906;DHT22;31619;49.008;12.106;2023-02-12T02:29:41;4.60;99.90
45906;DHT22;31619;49.008;12.106;2023-02-12T02:32:21;4.60;99.90
45906;DHT22;31619;49.008;12.106;2023-02-12T02:38:06;4.40;99.90
45906;DHT22;31619;49.008;12.106;2023-02-12T02:41:04;4.40;99.90
45906;DHT22;31619;49.008;12.106;2023-02-12T02:43:41;4.30;99.90
45906;DHT22;31619;49.008;12.106;2023-02-12T02:46:17;4.20;99.90
45906;DHT22;31619;49.008;12.106;2023-02-12T02:48:53;4.20;99.90
45906;DHT22;31619;49.008;12.106;2023-02-12T02:51:28;4.10;99.90
45906;DHT22;31619;49.008;12.106;2023-02-12T02:56:32;4.10;99.90
45906;DHT22;31619;49.008;12.106;2023-02-12T02:59:04;4.10;99.90
45906;DHT22;31619;49.008;12.106;2023-02-12T03:01:35;4.10;99.90
45906;DHT22;31619;49.008;12.106;2023-02-12T03:04:09;4.00;99.90
45906;DHT22;31619;49.008;12.106;2023-02-12T03:06:42;4.00;99.90
45906;DHT22;31619;49.008;12.106;2023-02-12T03:09:35;3.90;99.90
45906;DHT22;31619;49.008;12.106;2023-02-12T03:12:13;3.90;99.90
45906;DHT22;31619;49.008;12.106;2023-02-12T03:14:47;3.90;99.90
45906;DHT22;31619;49.008;12.106;2023-02-12T03:17:26;3.90;99.90
45906;DHT22;31619;49.008;12.106;2023-02-12T03:19:57;3.90;99.90
45906;DHT22;31619;49.008;12.106;2023-02-12T03:22:30;3.90;99.90
45906;DHT22;31619;49.008;12.106;2023-02-12T03:27:31;3.80;99.90
45906;DHT22;31619;49.008;12.106;2023-02-12T03:29:58;3.80;99.90
45906;DHT22;31619;49.008;12.106;2023-02-12T03:38:27;3.80;99.90
45906;DHT22;31619;49.008;12.106;2023-02-12T03:40:33;3.90;99.90
45906;DHT22;31619;49.008;12.106;2023-02-12T03:45:44;3.90;99.90
45906;DHT22;31619;49.008;12.106;2023-02-12T03:48:28;3.90;99.90
45906;DHT22;31619;49.008;12.106;2023-02-12T03:53:47;4.00;99.90
45906;DHT22;31619;49.008;12.106;2023-02-12T03:56:18;4.00;99.90
45906;DHT22;31619;49.008;12.106;2023-02-12T03:58:45;4.10;99.90
45906;DHT22;31619;49.008;12.106;2023-02-12T04:01:11;4.10;99.90
45906;DHT22;31619;49.008;12.106;2023-02-12T04:03:38;4.10;99.90
45906;DHT22;31619;49.008;12.106;2023-02-12T04:06:04;4.10;99.90
45906;DHT22;31619;49.008;12.106;2023-02-12T04:08:30;4.10;99.90
45906;DHT22;31619;49.008;12.106;2023-02-12T04:11:06;4.10;99.90
45906;DHT22;31619;49.008;12.106;2023-02-12T04:13:42;4.10;99.90
45906;DHT22;31619;49.008;12.106;2023-02-12T04:16:28;4.10;99.90
45906;DHT22;31619;49.008;12.106;2023-02-12T04:18:57;4.00;99.90
45906;DHT22;31619;49.008;12.106;2023-02-12T04:21:52;4.10;99.90
45906;DHT22;31619;49.008;12.106;2023-02-12T04:27:56;4.00;99.90
45906;DHT22;31619;49.008;12.106;2023-02-12T04:30:06;4.10;99.90
45906;DHT22;31619;49.008;12.106;2023-02-12T04:32:49;4.10;99.90
45906;DHT22;31619;49.008;12.106;2023-02-12T04:38:22;4.10;99.90
45906;DHT22;31619;49.008;12.106;2023-02-12T04:40:51;4.10;99.90
45906;DHT22;31619;49.008;12.106;2023-02-12T04:43:31;4.20;99.90
45906;DHT22;31619;49.008;12.106;2023-02-12T04:45:56;4.20;99.90
45906;DHT22;31619;49.008;12.106;2023-02-12T04:48:22;4.20;99.90
45906;DHT22;31619;49.008;12.106;2023-02-12T04:50:48;4.20;99.90
45906;DHT22;31619;49.008;12.106;2023-02-12T04:53:14;4.20;99.90
45906;DHT22;31619;49.008;12.106;2023-02-12T04:55:39;4.20;99.90
45906;DHT22;31619;49.008;12.106;2023-02-12T04:58:05;4.10;99.90
45906;DHT22;31619;49.008;12.106;2023-02-12T05:00:31;4.10;99.90
45906;DHT22;31619;49.008;12.106;2023-02-12T05:02:57;4.10;99.90
45906;DHT22;31619;49.008;12.106;2023-02-12T05:05:23;4.00;99.90
45906;DHT22;31619;49.008;12.106;2023-02-12T05:07:49;4.00;99.90
45906;DHT22;31619;49.008;12.106;2023-02-12T05:10:14;4.00;99.90
45906;DHT22;31619;49.008;12.106;2023-02-12T05:12:40;4.00;99.90
45906;DHT22;31619;49.008;12.106;2023-02-12T05:15:06;4.00;99.90
45906;DHT22;31619;49.008;12.106;2023-02-12T05:17:32;4.00;99.90
45906;DHT22;31619;49.008;12.106;2023-02-12T05:19:57;4.00;99.90
45906;DHT22;31619;49.008;12.106;2023-02-12T05:22:23;4.00;99.90
45906;DHT22;31619;49.008;12.106;2023-02-12T05:24:49;4.00;99.90
45906;DHT22;31619;49.008;12.106;2023-02-12T05:27:14;4.00;99.90
45906;DHT22;31619;49.008;12.106;2023-02-12T05:29:40;4.10;99.90
45906;DHT22;31619;49.008;12.106;2023-02-12T05:32:06;4.00;99.90
45906;DHT22;31619;49.008;12.106;2023-02-12T05:34:32;4.00;99.90
45906;DHT22;31619;49.008;12.106;2023-02-12T05:36:58;3.90;99.90
45906;DHT22;31619;49.008;12.106;2023-02-12T05:39:23;4.00;99.90
45906;DHT22;31619;49.008;12.106;2023-02-12T05:41:49;4.00;99.90
45906;DHT22;31619;49.008;12.106;2023-02-12T05:44:15;4.00;99.90
45906;DHT22;31619;49.008;12.106;2023-02-12T05:46:41;4.00;99.90
45906;DHT22;31619;49.008;12.106;2023-02-12T05:49:07;4.10;99.90
45906;DHT22;31619;49.008;12.106;2023-02-12T05:51:33;4.10;99.90
45906;DHT22;31619;49.008;12.106;2023-02-12T05:54:01;4.20;99.90
45906;DHT22;31619;49.008;12.106;2023-02-12T05:56:30;4.20;99.90
45906;DHT22;31619;49.008;12.106;2023-02-12T05:58:59;4.10;99.90
45906;DHT22;31619;49.008;12.106;2023-02-12T06:01:35;4.10;99.90
45906;DHT22;31619;49.008;12.106;2023-02-12T06:04:02;4.10;99.90
45906;DHT22;31619;49.008;12.106;2023-02-12T06:06:29;4.00;99.90
45906;DHT22;31619;49.008;12.106;2023-02-12T06:08:55;4.00;99.90
45906;DHT22;31619;49.008;12.106;2023-02-12T06:11:21;4.00;99.90
45906;DHT22;31619;49.008;12.106;2023-02-12T06:13:47;4.00;99.90
45906;DHT22;31619;49.008;12.106;2023-02-12T06:16:25;4.00;99.90
45906;DHT22;31619;49.008;12.106;2023-02-12T06:18:52;3.90;99.90
45906;DHT22;31619;49.008;12.106;2023-02-12T06:21:19;3.90;99.90
45906;DHT22;31619;49.008;12.106;2023-02-12T06:23:46;3.80;99.90
45906;DHT22;31619;49.008;12.106;2023-02-12T06:26:11;3.90;99.90
45906;DHT22;31619;49.008;12.106;2023-02-12T06:28:37;3.90;99.90
45906;DHT22;31619;49.008;12.106;2023-02-12T06:31:03;4.00;99.90
45906;DHT22;31619;49.008;12.106;2023-02-12T06:33:29;4.00;99.90
45906;DHT22;31619;49.008;12.106;2023-02-12T06:35:54;4.00;99.90
45906;DHT22;31619;49.008;12.106;2023-02-12T06:38:20;4.00;99.90
45906;DHT22;31619;49.008;12.106;2023-02-12T06:40:46;4.00;99.90
45906;DHT22;31619;49.008;12.106;2023-02-12T06:43:11;4.00;99.90
45906;DHT22;31619;49.008;12.106;2023-02-12T06:45:37;4.00;99.90
45906;DHT22;31619;49.008;12.106;2023-02-12T06:48:02;4.00;99.90
45906;DHT22;31619;49.008;12.106;2023-02-12T06:50:28;4.00;99.90
45906;DHT22;31619;49.008;12.106;2023-02-12T06:52:54;4.00;99.90
45906;DHT22;31619;49.008;12.106;2023-02-12T06:55:20;4.00;99.90
45906;DHT22;31619;49.008;12.106;2023-02-12T06:57:45;4.10;99.90
45906;DHT22;31619;49.008;12.106;2023-02-12T07:00:11;4.20;99.90
45906;DHT22;31619;49.008;12.106;2023-02-12T07:02:37;4.10;99.90
45906;DHT22;31619;49.008;12.106;2023-02-12T07:05:03;4.00;99.90
45906;DHT22;31619;49.008;12.106;2023-02-12T07:07:29;4.00;99.90
45906;DHT22;31619;49.008;12.106;2023-02-12T07:09:54;4.00;99.90
45906;DHT22;31619;49.008;12.106;2023-02-12T07:12:20;4.00;99.90
45906;DHT22;31619;49.008;12.106;2023-02-12T07:14:45;4.00;99.90
45906;DHT22;31619;49.008;12.106;2023-02-12T07:17:11;4.00;99.90
45906;DHT22;31619;49.008;12.106;2023-02-12T07:19:36;4.10;99.90
45906;DHT22;31619;49.008;12.106;2023-02-12T07:22:03;4.10;99.90
45906;DHT22;31619;49.008;12.106;2023-02-12T07:24:28;4.20;99.90
45906;DHT22;31619;49.008;12.106;2023-02-12T07:26:55;4.20;99.90
45906;DHT22;31619;49.008;12.106;2023-02-12T07:29:21;4.30;99.90
45906;DHT22;31619;49.008;12.106;2023-02-12T07:31:46;4.40;99.90
45906;DHT22;31619;49.008;12.106;2023-02-12T07:34:12;4.50;99.90
45906;DHT22;31619;49.008;12.106;2023-02-12T07:36:38;4.60;99.90
45906;DHT22;31619;49.008;12.106;2023-02-12T07:39:04;4.70;99.90
45906;DHT22;31619;49.008;12.106;2023-02-12T07:41:32;4.90;99.90
45906;DHT22;31619;49.008;12.106;2023-02-12T07:44:03;4.90;99.90
45906;DHT22;31619;49.008;12.106;2023-02-12T07:46:34;5.00;99.90
45906;DHT22;31619;49.008;12.106;2023-02-12T07:49:03;5.10;99.90
45906;DHT22;31619;49.008;12.106;2023-02-12T07:51:30;5.20;99.90
45906;DHT22;31619;49.008;12.106;2023-02-12T07:53:57;5.20;99.90
45906;DHT22;31619;49.008;12.106;2023-02-12T07:56:25;5.30;99.90
45906;DHT22;31619;49.008;12.106;2023-02-12T07:59:03;5.40;99.90
45906;DHT22;31619;49.008;12.106;2023-02-12T08:01:33;5.50;99.90
45906;DHT22;31619;49.008;12.106;2023-02-12T08:04:01;5.70;99.90
45906;DHT22;31619;49.008;12.106;2023-02-12T08:06:29;5.80;99.90
45906;DHT22;31619;49.008;12.106;2023-02-12T08:08:57;5.90;99.90
45906;DHT22;31619;49.008;12.106;2023-02-12T08:11:24;6.00;99.90
45906;DHT22;31619;49.008;12.106;2023-02-12T08:13:50;6.00;99.90
45906;DHT22;31619;49.008;12.106;2023-02-12T08:16:18;6.10;99.90
45906;DHT22;31619;49.008;12.106;2023-02-12T08:18:44;6.20;99.90
45906;DHT22;31619;49.008;12.106;2023-02-12T08:21:15;6.30;99.90
45906;DHT22;31619;49.008;12.106;2023-02-12T08:23:42;6.40;99.90
45906;DHT22;31619;49.008;12.106;2023-02-12T08:26:14;6.50;99.90
45906;DHT22;31619;49.008;12.106;2023-02-12T08:28:43;6.60;99.90
45906;DHT22;31619;49.008;12.106;2023-02-12T08:31:13;6.80;99.90
45906;DHT22;31619;49.008;12.106;2023-02-12T08:33:39;6.70;99.90
45906;DHT22;31619;49.008;12.106;2023-02-12T08:36:09;6.80;99.90
45906;DHT22;31619;49.008;12.106;2023-02-12T08:38:36;6.80;99.90
45906;DHT22;31619;49.008;12.106;2023-02-12T08:41:10;7.00;99.90
45906;DHT22;31619;49.008;12.106;2023-02-12T08:43:37;7.10;99.90
45906;DHT22;31619;49.008;12.106;2023-02-12T08:46:11;7.10;99.90
45906;DHT22;31619;49.008;12.106;2023-02-12T08:48:37;7.10;99.90
45906;DHT22;31619;49.008;12.106;2023-02-12T08:51:16;7.20;99.90
45906;DHT22;31619;49.008;12.106;2023-02-12T08:53:44;7.40;99.90
45906;DHT22;31619;49.008;12.106;2023-02-12T08:56:11;7.30;99.90
45906;DHT22;31619;49.008;12.106;2023-02-12T08:58:37;7.40;99.90
45906;DHT22;31619;49.008;12.106;2023-02-12T09:01:07;7.50;99.90
45906;DHT22;31619;49.008;12.106;2023-02-12T09:03:34;7.60;99.90
45906;DHT22;31619;49.008;12.106;2023-02-12T09:06:05;7.50;99.90
45906;DHT22;31619;49.008;12.106;2023-02-12T09:08:31;7.70;99.90
45906;DHT22;31619;49.008;12.106;2023-02-12T09:10:57;7.80;99.90
45906;DHT22;31619;49.008;12.106;2023-02-12T09:13:23;7.90;99.90
45906;DHT22;31619;49.008;12.106;2023-02-12T09:15:49;7.90;99.90
45906;DHT22;31619;49.008;12.106;2023-02-12T09:18:14;8.00;99.90
45906;DHT22;31619;49.008;12.106;2023-02-12T09:20:42;8.10;99.90
45906;DHT22;31619;49.008;12.106;2023-02-12T09:23:11;8.20;99.90
45906;DHT22;31619;49.008;12.106;2023-02-12T09:25:41;8.30;99.90
45906;DHT22;31619;49.008;12.106;2023-02-12T09:28:07;8.30;99.90
45906;DHT22;31619;49.008;12.106;2023-02-12T09:30:33;8.30;99.90
45906;DHT22;31619;49.008;12.106;2023-02-12T09:32:58;8.30;99.90
45906;DHT22;31619;49.008;12.106;2023-02-12T09:35:24;8.40;99.90
45906;DHT22;31619;49.008;12.106;2023-02-12T09:37:51;8.40;99.90
45906;DHT22;31619;49.008;12.106;2023-02-12T09:40:25;8.40;99.90
45906;DHT22;31619;49.008;12.106;2023-02-12T09:45:57;8.50;99.90
45906;DHT22;31619;49.008;12.106;2023-02-12T09:48:29;8.40;99.90
45906;DHT22;31619;49.008;12.106;2023-02-12T09:50:59;8.50;99.90
45906;DHT22;31619;49.008;12.106;2023-02-12T09:53:29;8.60;99.90
45906;DHT22;31619;49.008;12.106;2023-02-12T09:55:56;8.70;99.90
45906;DHT22;31619;49.008;12.106;2023-02-12T09:58:34;8.90;99.90
45906;DHT22;31619;49.008;12.106;2023-02-12T10:01:13;8.90;99.90
45906;DHT22;31619;49.008;12.106;2023-02-12T10:03:39;9.00;99.90
45906;DHT22;31619;49.008;12.106;2023-02-12T10:06:24;9.20;99.90
45906;DHT22;31619;49.008;12.106;2023-02-12T10:11:44;9.60;99.90
45906;DHT22;31619;49.008;12.106;2023-02-12T10:14:39;9.80;99.90
45906;DHT22;31619;49.008;12.106;2023-02-12T10:17:25;9.90;99.90
45906;DHT22;31619;49.008;12.106;2023-02-12T10:25:34;10.60;99.90
45906;DHT22;31619;49.008;12.106;2023-02-12T10:28:10;10.90;99.90
45906;DHT22;31619;49.008;12.106;2023-02-12T10:30:44;11.00;99.90
45906;DHT22;31619;49.008;12.106;2023-02-12T10:33:17;11.20;99.90
45906;DHT22;31619;49.008;12.106;2023-02-12T10:35:52;11.30;99.90
45906;DHT22;31619;49.008;12.106;2023-02-12T10:38:26;11.20;99.90
45906;DHT22;31619;49.008;12.106;2023-02-12T10:40:54;11.20;99.90
45906;DHT22;31619;49.008;12.106;2023-02-12T10:43:23;11.20;99.90
45906;DHT22;31619;49.008;12.106;2023-02-12T10:45:48;11.30;99.90
45906;DHT22;31619;49.008;12.106;2023-02-12T10:53:35;12.20;99.90
45906;DHT22;31619;49.008;12.106;2023-02-12T10:58:38;12.70;99.90
45906;DHT22;31619;49.008;12.106;2023-02-12T11:01:13;12.50;99.90
45906;DHT22;31619;49.008;12.106;2023-02-12T11:03:39;12.60;99.90
45906;DHT22;31619;49.008;12.106;2023-02-12T11:06:20;12.60;99.90
45906;DHT22;31619;49.008;12.106;2023-02-12T11:08:46;12.70;99.90
45906;DHT22;31619;49.008;12.106;2023-02-12T11:13:45;12.90;99.90
45906;DHT22;31619;49.008;12.106;2023-02-12T11:16:13;13.10;99.90
45906;DHT22;31619;49.008;12.106;2023-02-12T11:18:41;13.40;99.90
45906;DHT22;31619;49.008;12.106;2023-02-12T11:21:13;14.00;99.90
45906;DHT22;31619;49.008;12.106;2023-02-12T11:23:40;14.40;99.90
45906;DHT22;31619;49.008;12.106;2023-02-12T11:26:23;14.60;99.90
45906;DHT22;31619;49.008;12.106;2023-02-12T11:28:56;15.30;99.90
45906;DHT22;31619;49.008;12.106;2023-02-12T11:31:30;16.00;99.90
45906;DHT22;31619;49.008;12.106;2023-02-12T11:34:15;16.90;99.90
45906;DHT22;31619;49.008;12.106;2023-02-12T11:36:49;17.90;98.50
45906;DHT22;31619;49.008;12.106;2023-02-12T11:39:32;19.10;95.00
45906;DHT22;31619;49.008;12.106;2023-02-12T11:44:40;20.10;91.60
45906;DHT22;31619;49.008;12.106;2023-02-12T11:47:10;20.50;87.90
45906;DHT22;31619;49.008;12.106;2023-02-12T11:52:40;21.20;83.80
45906;DHT22;31619;49.008;12.106;2023-02-12T11:55:17;21.10;78.00
45906;DHT22;31619;49.008;12.106;2023-02-12T11:57:48;20.60;80.50
45906;DHT22;31619;49.008;12.106;2023-02-12T12:03:26;19.60;84.00
45906;DHT22;31619;49.008;12.106;2023-02-12T12:05:52;18.80;84.30
45906;DHT22;31619;49.008;12.106;2023-02-12T12:08:28;18.20;87.30
45906;DHT22;31619;49.008;12.106;2023-02-12T12:16:29;16.70;87.50
45906;DHT22;31619;49.008;12.106;2023-02-12T12:19:23;16.70;90.40
45906;DHT22;31619;49.008;12.106;2023-02-12T12:27:17;16.50;92.30
45906;DHT22;31619;49.008;12.106;2023-02-12T12:30:06;16.70;93.40
45906;DHT22;31619;49.008;12.106;2023-02-12T12:32:38;16.90;92.50
45906;DHT22;31619;49.008;12.106;2023-02-12T12:35:10;17.20;92.10
45906;DHT22;31619;49.008;12.106;2023-02-12T12:37:47;17.10;89.90
45906;DHT22;31619;49.008;12.106;2023-02-12T12:40:49;16.90;89.30
45906;DHT22;31619;49.008;12.106;2023-02-12T12:46:30;16.50;90.20
45906;DHT22;31619;49.008;12.106;2023-02-12T13:08:40;15.70;95.10
45906;DHT22;31619;49.008;12.106;2023-02-12T13:13:45;15.70;94.90
45906;DHT22;31619;49.008;12.106;2023-02-12T13:16:17;15.80;95.10
45906;DHT22;31619;49.008;12.106;2023-02-12T13:26:42;17.30;90.20
45906;DHT22;31619;49.008;12.106;2023-02-12T13:29:18;18.30;89.80
45906;DHT22;31619;49.008;12.106;2023-02-12T13:31:49;18.30;86.70
45906;DHT22;31619;49.008;12.106;2023-02-12T13:34:18;18.90;90.60
45906;DHT22;31619;49.008;12.106;2023-02-12T13:36:45;18.90;82.30
45906;DHT22;31619;49.008;12.106;2023-02-12T13:39:28;18.50;84.20
45906;DHT22;31619;49.008;12.106;2023-02-12T13:42:22;18.30;84.30
45906;DHT22;31619;49.008;12.106;2023-02-12T13:44:55;18.30;83.50
45906;DHT22;31619;49.008;12.106;2023-02-12T13:55:39;18.50;83.10
45906;DHT22;31619;49.008;12.106;2023-02-12T14:00:59;19.10;79.40
45906;DHT22;31619;49.008;12.106;2023-02-12T14:03:26;18.80;78.70
45906;DHT22;31619;49.008;12.106;2023-02-12T14:06:14;18.30;79.80
45906;DHT22;31619;49.008;12.106;2023-02-12T14:08:43;18.30;81.70
45906;DHT22;31619;49.008;12.106;2023-02-12T14:11:13;18.70;81.70
45906;DHT22;31619;49.008;12.106;2023-02-12T14:14:00;18.80;79.80
45906;DHT22;31619;49.008;12.106;2023-02-12T14:22:01;19.20;77.30
45906;DHT22;31619;49.008;12.106;2023-02-12T14:27:04;18.90;78.00
45906;DHT22;31619;49.008;12.106;2023-02-12T14:29:31;18.20;77.30
45906;DHT22;31619;49.008;12.106;2023-02-12T14:31:56;17.10;80.00
45906;DHT22;31619;49.008;12.106;2023-02-12T14:37:11;16.10;84.80
45906;DHT22;31619;49.008;12.106;2023-02-12T14:39:39;15.80;85.20
45906;DHT22;31619;49.008;12.106;2023-02-12T14:44:42;15.40;87.00
45906;DHT22;31619;49.008;12.106;2023-02-12T14:50:40;14.80;88.70
45906;DHT22;31619;49.008;12.106;2023-02-12T14:53:30;14.70;89.90
45906;DHT22;31619;49.008;12.106;2023-02-12T14:55:57;14.50;90.30
45906;DHT22;31619;49.008;12.106;2023-02-12T14:58:25;14.20;90.20
45906;DHT22;31619;49.008;12.106;2023-02-12T15:00:53;14.10;90.50
45906;DHT22;31619;49.008;12.106;2023-02-12T15:22:13;13.30;93.60
45906;DHT22;31619;49.008;12.106;2023-02-12T15:24:41;13.20;93.60
45906;DHT22;31619;49.008;12.106;2023-02-12T15:27:12;13.10;93.90
45906;DHT22;31619;49.008;12.106;2023-02-12T15:29:50;12.90;94.30
45906;DHT22;31619;49.008;12.106;2023-02-12T15:32:22;12.60;94.60
45906;DHT22;31619;49.008;12.106;2023-02-12T15:34:50;12.30;95.30
45906;DHT22;31619;49.008;12.106;2023-02-12T15:37:27;12.00;96.00
45906;DHT22;31619;49.008;12.106;2023-02-12T15:39:59;11.60;96.80
45906;DHT22;31619;49.008;12.106;2023-02-12T15:42:27;11.30;97.70
45906;DHT22;31619;49.008;12.106;2023-02-12T15:47:42;10.70;99.30
45906;DHT22;31619;49.008;12.106;2023-02-12T15:50:15;10.50;99.90
45906;DHT22;31619;49.008;12.106;2023-02-12T15:52:43;10.20;99.90
45906;DHT22;31619;49.008;12.106;2023-02-12T15:55:19;9.90;99.90
45906;DHT22;31619;49.008;12.106;2023-02-12T15:57:50;9.70;99.90
45906;DHT22;31619;49.008;12.106;2023-02-12T16:00:40;9.50;99.90
45906;DHT22;31619;49.008;12.106;2023-02-12T16:03:22;9.30;99.90
45906;DHT22;31619;49.008;12.106;2023-02-12T16:05:49;9.10;99.90
45906;DHT22;31619;49.008;12.106;2023-02-12T16:08:17;9.00;99.90
45906;DHT22;31619;49.008;12.106;2023-02-12T16:10:45;8.90;99.90
45906;DHT22;31619;49.008;12.106;2023-02-12T16:13:28;8.70;99.90
45906;DHT22;31619;49.008;12.106;2023-02-12T16:16:26;8.50;99.90
45906;DHT22;31619;49.008;12.106;2023-02-12T16:19:18;8.30;99.90
45906;DHT22;31619;49.008;12.106;2023-02-12T16:21:47;8.20;99.90
45906;DHT22;31619;49.008;12.106;2023-02-12T16:24:27;8.10;99.90
45906;DHT22;31619;49.008;12.106;2023-02-12T16:26:54;8.00;99.90
45906;DHT22;31619;49.008;12.106;2023-02-12T16:29:20;7.80;99.90
45906;DHT22;31619;49.008;12.106;2023-02-12T16:31:59;7.70;99.90
45906;DHT22;31619;49.008;12.106;2023-02-12T16:34:36;7.60;99.90
45906;DHT22;31619;49.008;12.106;2023-02-12T16:48:17;7.00;99.90
45906;DHT22;31619;49.008;12.106;2023-02-12T16:50:47;6.90;99.90
45906;DHT22;31619;49.008;12.106;2023-02-12T16:53:42;6.80;99.90
45906;DHT22;31619;49.008;12.106;2023-02-12T16:56:14;6.70;99.90
45906;DHT22;31619;49.008;12.106;2023-02-12T16:58:41;6.60;99.90
45906;DHT22;31619;49.008;12.106;2023-02-12T17:01:06;6.50;99.90
45906;DHT22;31619;49.008;12.106;2023-02-12T17:03:33;6.40;99.90
45906;DHT22;31619;49.008;12.106;2023-02-12T17:05:59;6.30;99.90
45906;DHT22;31619;49.008;12.106;2023-02-12T17:08:25;6.10;99.90
45906;DHT22;31619;49.008;12.106;2023-02-12T17:10:51;6.00;99.90
45906;DHT22;31619;49.008;12.106;2023-02-12T17:13:17;6.00;99.90
45906;DHT22;31619;49.008;12.106;2023-02-12T17:15:50;5.90;99.90
45906;DHT22;31619;49.008;12.106;2023-02-12T17:18:17;5.70;99.90
45906;DHT22;31619;49.008;12.106;2023-02-12T17:20:45;5.60;99.90
45906;DHT22;31619;49.008;12.106;2023-02-12T17:23:12;5.50;99.90
45906;DHT22;31619;49.008;12.106;2023-02-12T17:25:37;5.50;99.90
45906;DHT22;31619;49.008;12.106;2023-02-12T17:28:03;5.30;99.90
45906;DHT22;31619;49.008;12.106;2023-02-12T17:30:29;5.10;99.90
45906;DHT22;31619;49.008;12.106;2023-02-12T17:32:56;5.10;99.90
45906;DHT22;31619;49.008;12.106;2023-02-12T17:35:22;5.00;99.90
45906;DHT22;31619;49.008;12.106;2023-02-12T17:37:48;5.10;99.90
45906;DHT22;31619;49.008;12.106;2023-02-12T17:40:13;5.00;99.90
45906;DHT22;31619;49.008;12.106;2023-02-12T17:42:39;4.90;99.90
45906;DHT22;31619;49.008;12.106;2023-02-12T17:45:05;4.90;99.90
45906;DHT22;31619;49.008;12.106;2023-02-12T17:47:30;4.80;99.90
45906;DHT22;31619;49.008;12.106;2023-02-12T17:49:57;4.70;99.90
45906;DHT22;31619;49.008;12.106;2023-02-12T17:52:24;4.70;99.90
45906;DHT22;31619;49.008;12.106;2023-02-12T17:54:50;4.60;99.90
45906;DHT22;31619;49.008;12.106;2023-02-12T17:57:15;4.60;99.90
45906;DHT22;31619;49.008;12.106;2023-02-12T17:59:42;4.50;99.90
45906;DHT22;31619;49.008;12.106;2023-02-12T18:02:10;4.40;99.90
45906;DHT22;31619;49.008;12.106;2023-02-12T18:04:35;4.40;99.90
45906;DHT22;31619;49.008;12.106;2023-02-12T18:07:02;4.30;99.90
45906;DHT22;31619;49.008;12.106;2023-02-12T18:09:27;4.30;99.90
45906;DHT22;31619;49.008;12.106;2023-02-12T18:11:53;4.30;99.90
45906;DHT22;31619;49.008;12.106;2023-02-12T18:14:19;4.20;99.90
45906;DHT22;31619;49.008;12.106;2023-02-12T18:16:44;4.20;99.90
45906;DHT22;31619;49.008;12.106;2023-02-12T18:19:10;4.20;99.90
45906;DHT22;31619;49.008;12.106;2023-02-12T18:21:36;4.10;99.90
45906;DHT22;31619;49.008;12.106;2023-02-12T18:24:03;4.00;99.90
45906;DHT22;31619;49.008;12.106;2023-02-12T18:26:29;3.90;99.90
45906;DHT22;31619;49.008;12.106;2023-02-12T18:28:59;3.90;99.90
45906;DHT22;31619;49.008;12.106;2023-02-12T18:31:25;3.80;99.90
45906;DHT22;31619;49.008;12.106;2023-02-12T18:33:51;3.90;99.90
45906;DHT22;31619;49.008;12.106;2023-02-12T18:36:19;3.80;99.90